createdAt,value
2022-08-19T00:01:57.782Z,82.44
2022-08-19T00:04:29.444Z,82.35
2022-08-19T00:06:56.657Z,82.12
2022-08-19T00:09:25.177Z,82.23
2022-08-19T00:11:53.097Z,82.36
2022-08-19T00:14:21.443Z,82.15
2022-08-19T00:16:48.758Z,82.24
2022-08-19T00:19:16.713Z,82.23
2022-08-19T00:21:44.215Z,82.32
2022-08-19T00:24:12.682Z,82.49
2022-08-19T00:26:39.467Z,82.25
2022-08-19T00:29:08.123Z,81.89
2022-08-19T00:31:35.015Z,81.79
2022-08-19T00:34:01.491Z,82.14
2022-08-19T00:36:29.511Z,82.33
2022-08-19T00:38:56.263Z,82.48
2022-08-19T00:41:25.167Z,82.38
2022-08-19T00:44:13.605Z,81.97
2022-08-19T00:46:42.877Z,82.24
2022-08-19T00:49:21.355Z,82.49
2022-08-19T00:51:51.329Z,82.60
2022-08-19T00:54:19.163Z,83.00
2022-08-19T00:56:55.261Z,83.04
2022-08-19T01:00:00.547Z,83.01
2022-08-19T01:02:09.981Z,82.83
2022-08-19T01:04:36.415Z,82.86
2022-08-19T01:07:03.398Z,82.92
2022-08-19T01:09:31.285Z,83.12
2022-08-19T01:11:58.091Z,82.81
2022-08-19T01:14:25.011Z,82.63
2022-08-19T01:16:55.376Z,82.22
2022-08-19T01:19:28.487Z,82.29
2022-08-19T01:22:04.090Z,82.70
2022-08-19T01:24:45.953Z,82.62
2022-08-19T01:27:17.261Z,82.33
2022-08-19T01:29:45.635Z,81.99
2022-08-19T01:32:33.365Z,82.17
2022-08-19T01:35:02.993Z,82.51
2022-08-19T01:37:31.224Z,82.07
2022-08-19T01:39:57.827Z,82.40
2022-08-19T01:42:30.219Z,82.74
2022-08-19T01:44:57.629Z,82.54
2022-08-19T01:47:24.043Z,82.77
2022-08-19T01:49:50.400Z,82.96
2022-08-19T01:52:16.807Z,83.07
2022-08-19T01:54:43.186Z,83.07
2022-08-19T01:57:13.163Z,82.97
2022-08-19T01:59:40.840Z,83.11
2022-08-19T02:02:09.320Z,83.24
2022-08-19T02:04:38.592Z,83.06
2022-08-19T02:07:05.663Z,83.29
2022-08-19T02:09:33.392Z,83.31
2022-08-19T02:11:59.759Z,83.27
2022-08-19T02:14:26.264Z,83.36
2022-08-19T02:16:52.689Z,83.49
2022-08-19T02:19:19.061Z,83.32
2022-08-19T02:21:45.465Z,82.99
2022-08-19T02:24:13.111Z,82.81
2022-08-19T02:26:39.542Z,82.92
2022-08-19T02:29:06.375Z,83.16
2022-08-19T02:31:33.103Z,83.27
2022-08-19T02:33:59.715Z,83.26
2022-08-19T02:36:26.443Z,83.41
2022-08-19T02:38:54.790Z,83.34
2022-08-19T02:41:27.000Z,83.38
2022-08-19T02:44:26.497Z,83.30
2022-08-19T02:46:48.101Z,83.63
2022-08-19T02:49:17.247Z,83.61
2022-08-19T02:51:45.724Z,83.75
2022-08-19T02:54:13.738Z,83.78
2022-08-19T02:56:41.947Z,83.76
2022-08-19T02:59:11.845Z,84.00
2022-08-19T03:01:40.769Z,84.28
2022-08-19T03:04:08.965Z,84.29
2022-08-19T03:06:38.660Z,84.39
2022-08-19T03:09:05.110Z,83.86
2022-08-19T03:11:33.049Z,84.05
2022-08-19T03:14:01.197Z,83.84
2022-08-19T03:16:33.351Z,84.03
2022-08-19T03:19:01.144Z,84.51
2022-08-19T03:21:32.986Z,84.33
2022-08-19T03:24:02.525Z,84.15
2022-08-19T03:26:29.781Z,84.12
2022-08-19T03:28:58.266Z,83.99
2022-08-19T03:31:43.351Z,83.99
2022-08-19T03:34:28.364Z,84.07
2022-08-19T03:36:57.276Z,84.22
2022-08-19T03:39:25.450Z,84.33
2022-08-19T03:42:38.513Z,84.54
2022-08-19T03:44:40.363Z,84.33
2022-08-19T03:47:07.294Z,84.29
2022-08-19T03:49:36.023Z,84.01
2022-08-19T03:52:05.932Z,84.48
2022-08-19T03:54:32.345Z,84.25
2022-08-19T03:56:58.920Z,84.47
2022-08-19T03:59:33.473Z,84.63
2022-08-19T04:02:02.045Z,84.74
2022-08-19T04:04:29.705Z,84.65
2022-08-19T04:06:57.691Z,84.51
2022-08-19T04:09:24.673Z,84.58
2022-08-19T04:11:54.879Z,84.51
2022-08-19T04:14:32.568Z,84.70
2022-08-19T04:17:01.813Z,84.74
2022-08-19T04:19:30.938Z,84.71
2022-08-19T04:21:57.324Z,84.43
2022-08-19T04:24:23.939Z,84.55
2022-08-19T04:26:50.893Z,84.75
2022-08-19T04:29:22.638Z,84.83
2022-08-19T04:31:49.826Z,85.14
2022-08-19T04:34:18.655Z,85.15
2022-08-19T04:36:46.179Z,85.55
2022-08-19T04:39:17.097Z,85.52
2022-08-19T04:42:03.590Z,85.45
2022-08-19T04:44:35.577Z,85.47
2022-08-19T04:47:04.314Z,85.69
2022-08-19T04:49:37.934Z,85.93
2022-08-19T04:52:04.337Z,86.60
2022-08-19T04:54:38.772Z,86.87
2022-08-19T04:57:07.947Z,86.91
2022-08-19T04:59:35.103Z,86.92
2022-08-19T05:02:01.808Z,86.91
2022-08-19T05:04:32.592Z,86.79
2022-08-19T05:06:59.481Z,86.38
2022-08-19T05:09:28.628Z,86.18
2022-08-19T05:12:15.166Z,85.95
2022-08-19T05:14:41.523Z,85.90
2022-08-19T05:17:26.697Z,85.77
2022-08-19T05:20:12.356Z,85.64
2022-08-19T05:22:38.801Z,85.44
2022-08-19T05:25:13.874Z,85.69
2022-08-19T05:27:42.227Z,85.90
2022-08-19T05:30:09.646Z,86.09
2022-08-19T05:32:36.078Z,86.02
2022-08-19T05:35:02.566Z,85.85
2022-08-19T05:37:29.808Z,85.72
2022-08-19T05:39:56.283Z,85.68
2022-08-19T05:42:23.965Z,85.29
2022-08-19T05:44:51.397Z,85.01
2022-08-19T05:47:20.543Z,84.37
2022-08-19T05:49:47.591Z,81.86
2022-08-19T05:52:18.947Z,80.50
2022-08-19T05:54:50.867Z,79.51
2022-08-19T05:57:18.937Z,78.34
2022-08-19T05:59:47.145Z,77.32
2022-08-19T06:02:15.029Z,77.12
2022-08-19T06:04:43.823Z,75.91
2022-08-19T06:07:11.917Z,75.21
2022-08-19T06:09:40.069Z,74.39
2022-08-19T06:12:07.313Z,74.20
2022-08-19T06:14:40.341Z,74.87
2022-08-19T06:17:09.022Z,74.50
2022-08-19T06:19:40.611Z,73.96
2022-08-19T06:22:08.203Z,75.20
2022-08-19T06:24:34.620Z,77.88
2022-08-19T06:27:02.190Z,79.21
2022-08-19T06:29:30.262Z,80.26
2022-08-19T06:31:59.551Z,80.67
2022-08-19T06:34:29.052Z,81.00
2022-08-19T06:36:57.101Z,80.64
2022-08-19T06:39:26.824Z,80.49
2022-08-19T06:41:58.678Z,80.02
2022-08-19T06:44:27.968Z,80.17
2022-08-19T06:46:55.984Z,80.30
2022-08-19T06:49:23.645Z,80.55
2022-08-19T06:51:50.596Z,80.39
2022-08-19T06:54:20.159Z,81.05
2022-08-19T06:56:47.866Z,81.03
2022-08-19T06:59:18.594Z,81.66
2022-08-19T07:01:47.933Z,81.74
2022-08-19T07:04:16.704Z,82.43
2022-08-19T07:06:44.854Z,82.35
2022-08-19T07:09:18.571Z,82.60
2022-08-19T07:11:51.512Z,82.72
2022-08-19T07:14:20.435Z,82.85
2022-08-19T07:16:49.701Z,82.58
2022-08-19T07:19:18.913Z,82.70
2022-08-19T07:21:47.143Z,82.62
2022-08-19T07:24:13.567Z,82.68
2022-08-19T07:26:42.916Z,82.44
2022-08-19T07:29:10.424Z,82.47
2022-08-19T07:31:37.779Z,82.81
2022-08-19T07:34:09.837Z,82.94
2022-08-19T07:36:39.908Z,82.77
2022-08-19T07:39:13.198Z,82.58
2022-08-19T07:41:40.258Z,82.60
2022-08-19T07:44:08.281Z,81.91
2022-08-19T07:46:38.385Z,81.63
2022-08-19T07:49:07.432Z,81.24
2022-08-19T07:51:36.345Z,80.94
2022-08-19T07:54:04.282Z,80.58
2022-08-19T07:56:30.707Z,80.21
2022-08-19T08:01:29.335Z,80.43
2022-08-19T08:04:16.417Z,80.33
2022-08-19T08:07:01.687Z,80.13
2022-08-19T08:09:32.877Z,79.14
2022-08-19T08:12:32.956Z,78.71
2022-08-19T08:14:55.952Z,78.70
2022-08-19T08:17:31.118Z,78.51
2022-08-19T08:20:11.991Z,78.40
2022-08-19T08:23:01.772Z,78.48
2022-08-19T08:25:28.305Z,77.34
2022-08-19T08:28:01.064Z,77.42
2022-08-19T08:30:31.221Z,77.08
2022-08-19T08:33:00.218Z,76.78
2022-08-19T08:35:26.799Z,76.45
2022-08-19T08:37:55.703Z,76.00
2022-08-19T08:40:28.883Z,76.54
2022-08-19T08:43:24.256Z,75.26
2022-08-19T08:45:59.924Z,75.84
2022-08-19T08:48:47.761Z,74.59
2022-08-19T08:51:33.219Z,74.32
2022-08-19T08:54:05.149Z,73.71
2022-08-19T08:59:09.251Z,73.02
2022-08-19T09:01:36.957Z,72.63
2022-08-19T09:04:06.474Z,70.73
2022-08-19T09:06:47.966Z,70.44
2022-08-19T09:09:17.876Z,69.10
2022-08-19T09:12:12.985Z,67.66
2022-08-19T09:14:52.320Z,67.34
2022-08-19T09:17:31.614Z,67.99
2022-08-19T09:20:09.085Z,65.78
2022-08-19T09:22:41.002Z,66.42
2022-08-19T09:25:10.844Z,65.89
2022-08-19T09:27:42.911Z,66.20
2022-08-19T09:30:26.803Z,64.88
2022-08-19T09:32:54.426Z,63.05
2022-08-19T09:35:24.305Z,64.26
2022-08-19T09:37:51.068Z,62.14
2022-08-19T09:40:25.880Z,62.86
2022-08-19T09:42:53.013Z,62.42
2022-08-19T09:45:22.810Z,63.17
2022-08-19T09:47:52.050Z,61.96
2022-08-19T09:50:21.340Z,62.95
2022-08-19T09:52:49.468Z,62.38
2022-08-19T09:55:22.158Z,61.10
2022-08-19T09:57:50.569Z,60.35
2022-08-19T10:00:17.236Z,60.67
2022-08-19T10:02:45.581Z,59.42
2022-08-19T10:05:30.993Z,58.69
2022-08-19T10:07:57.692Z,59.65
2022-08-19T10:10:24.954Z,57.70
2022-08-19T10:12:51.309Z,58.90
2022-08-19T10:15:29.050Z,57.92
2022-08-19T10:17:56.435Z,57.00
2022-08-19T10:20:23.622Z,59.24
2022-08-19T10:22:51.783Z,58.38
2022-08-19T10:25:18.446Z,59.25
2022-08-19T10:27:47.910Z,58.07
2022-08-19T10:30:18.078Z,55.90
2022-08-19T10:32:46.744Z,55.97
2022-08-19T10:35:14.497Z,56.75
2022-08-19T10:37:56.807Z,56.66
2022-08-19T10:40:29.228Z,57.08
2022-08-19T10:42:59.175Z,57.03
2022-08-19T10:45:26.898Z,55.83
2022-08-19T10:47:56.732Z,54.81
2022-08-19T10:50:41.964Z,55.74
2022-08-19T10:53:11.966Z,56.39
2022-08-19T10:55:56.904Z,54.18
2022-08-19T10:58:24.612Z,54.51
2022-08-19T11:00:56.009Z,54.12
2022-08-19T11:03:23.182Z,54.95
2022-08-19T11:06:00.020Z,55.11
2022-08-19T11:08:27.579Z,56.36
2022-08-19T11:10:58.451Z,56.07
2022-08-19T11:13:25.461Z,55.18
2022-08-19T11:16:07.305Z,54.25
2022-08-19T11:18:39.529Z,51.38
2022-08-19T11:21:17.823Z,52.90
2022-08-19T11:23:44.847Z,51.31
2022-08-19T11:26:11.605Z,52.41
2022-08-19T11:28:38.247Z,52.03
2022-08-19T11:31:04.837Z,53.13
2022-08-19T11:33:31.840Z,51.53
2022-08-19T11:36:00.253Z,52.67
2022-08-19T11:38:27.179Z,50.98
2022-08-19T11:41:02.365Z,50.88
2022-08-19T11:43:30.870Z,51.09
2022-08-19T11:45:59.145Z,52.24
2022-08-19T11:48:26.240Z,49.33
2022-08-19T11:50:55.444Z,50.41
2022-08-19T11:53:21.864Z,52.05
2022-08-19T11:55:49.065Z,54.01
2022-08-19T11:58:18.787Z,54.25
2022-08-19T12:00:46.184Z,51.01
2022-08-19T12:03:15.855Z,51.75
2022-08-19T12:05:42.319Z,50.76
2022-08-19T12:08:09.685Z,51.33
2022-08-19T12:10:36.586Z,51.90
2022-08-19T12:13:03.536Z,51.52
2022-08-19T12:15:37.056Z,53.53
2022-08-19T12:18:05.087Z,53.05
2022-08-19T12:20:31.948Z,54.29
2022-08-19T12:23:01.954Z,55.26
2022-08-19T12:25:28.420Z,56.45
2022-08-19T12:27:57.553Z,55.76
2022-08-19T12:30:24.213Z,56.89
2022-08-19T12:32:52.033Z,57.51
2022-08-19T12:35:21.031Z,57.67
2022-08-19T12:37:55.801Z,57.20
2022-08-19T12:40:24.177Z,58.86
2022-08-19T12:42:53.080Z,58.43
2022-08-19T12:45:20.025Z,58.92
2022-08-19T12:47:47.726Z,60.05
2022-08-19T12:50:14.359Z,59.08
2022-08-19T12:52:43.157Z,59.90
2022-08-19T12:55:11.493Z,60.21
2022-08-19T12:57:38.522Z,60.03
2022-08-19T13:00:14.668Z,58.55
2022-08-19T13:02:45.080Z,58.12
2022-08-19T13:05:14.572Z,57.84
2022-08-19T13:07:41.871Z,59.10
2022-08-19T13:10:10.233Z,59.50
2022-08-19T13:12:36.733Z,59.62
2022-08-19T13:15:03.724Z,60.01
2022-08-19T13:17:37.914Z,59.99
2022-08-19T13:20:06.324Z,60.59
2022-08-19T13:22:32.761Z,60.61
2022-08-19T13:24:59.251Z,62.01
2022-08-19T13:27:25.613Z,63.14
2022-08-19T13:30:10.789Z,65.16
2022-08-19T13:32:55.634Z,66.06
2022-08-19T13:35:22.044Z,67.55
2022-08-19T13:37:48.508Z,67.64
2022-08-19T13:40:19.240Z,68.33
2022-08-19T13:42:48.307Z,69.11
2022-08-19T13:45:17.456Z,69.81
2022-08-19T13:47:47.201Z,69.36
2022-08-19T13:50:17.412Z,69.77
2022-08-19T13:52:44.221Z,69.60
2022-08-19T13:55:12.339Z,70.02
2022-08-19T13:57:42.904Z,70.36
2022-08-19T14:00:16.192Z,70.91
2022-08-19T14:02:42.664Z,71.36
2022-08-19T14:05:12.248Z,71.63
2022-08-19T14:07:38.618Z,71.54
2022-08-19T14:10:07.604Z,72.19
2022-08-19T14:12:34.718Z,72.55
2022-08-19T14:15:01.690Z,71.77
2022-08-19T14:17:29.321Z,72.11
2022-08-19T14:20:10.612Z,73.24
2022-08-19T14:22:39.916Z,73.51
2022-08-19T14:25:08.967Z,75.01
2022-08-19T14:27:39.135Z,74.71
2022-08-19T14:30:07.839Z,76.31
2022-08-19T14:32:35.267Z,77.09
2022-08-19T14:35:02.543Z,77.56
2022-08-19T14:37:28.930Z,78.78
2022-08-19T14:39:55.338Z,79.55
2022-08-19T14:42:21.722Z,80.93
2022-08-19T14:44:48.103Z,80.88
2022-08-19T14:47:15.048Z,81.15
2022-08-19T14:49:44.772Z,81.44
2022-08-19T14:52:14.744Z,81.42
2022-08-19T14:54:41.175Z,82.18
2022-08-19T14:57:07.641Z,81.25
2022-08-19T14:59:35.748Z,80.94
2022-08-19T15:02:33.619Z,82.17
2022-08-19T15:04:48.457Z,80.79
2022-08-19T15:07:28.255Z,81.17
2022-08-19T15:09:55.575Z,80.86
2022-08-19T15:12:23.374Z,80.24
2022-08-19T15:14:55.119Z,80.74
2022-08-19T15:17:25.787Z,80.27
2022-08-19T15:20:11.564Z,81.08
2022-08-19T15:22:38.287Z,81.42
2022-08-19T15:25:06.753Z,80.00
2022-08-19T15:27:33.392Z,79.23
2022-08-19T15:30:01.488Z,79.10
2022-08-19T15:32:28.927Z,78.25
2022-08-19T15:34:55.484Z,76.80
2022-08-19T15:37:25.076Z,76.58
2022-08-19T15:39:51.608Z,75.08
2022-08-19T15:42:29.358Z,75.89
2022-08-19T15:44:56.798Z,75.72
2022-08-19T15:47:35.071Z,73.87
2022-08-19T15:50:06.421Z,74.99
2022-08-19T15:52:49.131Z,75.61
2022-08-19T15:55:33.419Z,75.39
2022-08-19T15:58:28.793Z,74.86
2022-08-19T16:01:20.494Z,73.68
2022-08-19T16:04:14.097Z,73.59
2022-08-19T16:07:01.423Z,74.06
2022-08-19T16:09:30.429Z,74.81
2022-08-19T16:12:02.643Z,75.31
2022-08-19T16:14:32.619Z,75.50
2022-08-19T16:16:59.469Z,76.35
2022-08-19T16:19:26.202Z,76.48
2022-08-19T16:21:54.285Z,75.79
2022-08-19T16:24:23.304Z,76.18
2022-08-19T16:26:49.714Z,75.77
2022-08-19T16:29:30.225Z,76.27
2022-08-19T16:32:03.099Z,75.81
2022-08-19T16:34:29.952Z,74.70
2022-08-19T16:36:56.320Z,74.05
2022-08-19T16:39:23.889Z,74.04
2022-08-19T16:41:51.495Z,73.39
2022-08-19T16:44:20.622Z,72.71
2022-08-19T16:46:50.706Z,72.71
2022-08-19T16:49:54.290Z,70.19
2022-08-19T16:52:14.827Z,69.83
2022-08-19T16:54:43.794Z,68.87
2022-08-19T16:57:12.323Z,68.67
2022-08-19T16:59:48.288Z,70.13
2022-08-19T17:02:16.328Z,70.74
2022-08-19T17:04:42.695Z,71.57
2022-08-19T17:07:10.224Z,71.44
2022-08-19T17:09:36.975Z,71.61
2022-08-19T17:12:04.645Z,71.15
2022-08-19T17:14:31.030Z,71.91
2022-08-19T17:16:57.418Z,73.26
2022-08-19T17:19:23.776Z,73.60
2022-08-19T17:21:50.221Z,74.23
2022-08-19T17:24:16.688Z,74.38
2022-08-19T17:26:43.502Z,74.88
2022-08-19T17:29:09.962Z,75.13
2022-08-19T17:31:36.715Z,74.95
2022-08-19T17:34:03.731Z,74.72
2022-08-19T17:36:32.532Z,74.77
2022-08-19T17:39:00.934Z,74.84
2022-08-19T17:41:28.376Z,75.45
2022-08-19T17:43:54.827Z,75.37
2022-08-19T17:46:21.463Z,75.36
2022-08-19T17:48:52.707Z,75.39
2022-08-19T17:51:22.528Z,75.26
2022-08-19T17:53:50.811Z,75.71
2022-08-19T17:56:17.750Z,75.45
2022-08-19T17:58:45.062Z,75.60
2022-08-19T18:01:20.609Z,75.75
2022-08-19T18:03:51.121Z,75.80
2022-08-19T18:06:17.484Z,76.07
2022-08-19T18:08:48.999Z,75.90
2022-08-19T18:11:16.573Z,75.87
2022-08-19T18:13:43.152Z,75.49
2022-08-19T18:16:11.229Z,75.47
2022-08-19T18:18:39.520Z,74.93
2022-08-19T18:21:06.688Z,74.53
2022-08-19T18:23:45.306Z,74.58
2022-08-19T18:26:12.663Z,74.82
2022-08-19T18:28:39.760Z,74.86
2022-08-19T18:31:16.697Z,75.23
2022-08-19T18:33:44.689Z,75.37
2022-08-19T18:36:11.341Z,75.57
2022-08-19T18:38:56.207Z,75.62
2022-08-19T18:41:41.078Z,75.61
2022-08-19T18:44:25.885Z,75.70
2022-08-19T18:47:13.503Z,76.13
2022-08-19T18:49:40.431Z,75.88
2022-08-19T18:52:07.065Z,75.92
2022-08-19T18:54:34.291Z,76.17
2022-08-19T18:57:00.743Z,76.50
2022-08-19T18:59:29.828Z,76.43
2022-08-19T19:01:58.267Z,76.52
2022-08-19T19:04:33.981Z,76.58
2022-08-19T19:07:00.650Z,76.98
2022-08-19T19:09:27.474Z,76.82
2022-08-19T19:11:57.986Z,77.47
2022-08-19T19:14:48.653Z,77.05
2022-08-19T19:17:16.419Z,77.11
2022-08-19T19:19:43.864Z,77.68
2022-08-19T19:22:13.436Z,77.49
2022-08-19T19:24:44.107Z,77.66
2022-08-19T19:27:12.939Z,77.95
2022-08-19T19:29:40.883Z,77.83
2022-08-19T19:32:16.474Z,78.52
2022-08-19T19:34:42.876Z,78.59
2022-08-19T19:37:09.236Z,78.74
2022-08-19T19:39:46.241Z,78.54
2022-08-19T19:42:19.894Z,78.91
2022-08-19T19:44:48.777Z,79.14
2022-08-19T19:47:16.031Z,79.54
2022-08-19T19:50:03.793Z,79.46
2022-08-19T19:52:28.819Z,79.61
2022-08-19T19:54:56.647Z,79.86
2022-08-19T19:57:26.759Z,80.01
2022-08-19T19:59:54.119Z,80.14
2022-08-19T20:02:21.790Z,79.96
2022-08-19T20:04:48.797Z,80.40
2022-08-19T20:07:15.298Z,80.31
2022-08-19T20:09:58.683Z,80.60
2022-08-19T20:12:25.978Z,80.41
2022-08-19T20:14:52.354Z,80.85
2022-08-19T20:17:20.317Z,80.86
2022-08-19T20:19:47.635Z,80.77
2022-08-19T20:22:14.373Z,80.96
2022-08-19T20:24:42.314Z,80.90
2022-08-19T20:27:09.119Z,80.95
2022-08-19T20:29:39.367Z,80.72
2022-08-19T20:32:09.136Z,80.78
2022-08-19T20:34:35.840Z,81.06
2022-08-19T20:37:02.224Z,81.26
2022-08-19T20:39:28.621Z,81.42
2022-08-19T20:41:56.308Z,81.42
2022-08-19T20:44:24.701Z,81.29
2022-08-19T20:46:55.446Z,81.69
2022-08-19T20:49:27.229Z,81.52
2022-08-19T20:51:54.901Z,81.51
2022-08-19T20:54:21.780Z,81.48
2022-08-19T20:56:48.196Z,81.80
2022-08-19T20:59:15.022Z,81.30
2022-08-19T21:01:41.375Z,81.75
2022-08-19T21:04:07.720Z,81.78
2022-08-19T21:06:34.115Z,82.05
2022-08-19T21:09:00.727Z,81.97
2022-08-19T21:11:27.128Z,82.02
2022-08-19T21:13:53.474Z,81.86
2022-08-19T21:16:19.937Z,82.17
2022-08-19T21:18:46.316Z,82.35
2022-08-19T21:21:12.762Z,82.25
2022-08-19T21:23:39.139Z,82.30
2022-08-19T21:26:05.989Z,82.54
2022-08-19T21:28:35.963Z,82.44
2022-08-19T21:31:05.252Z,82.38
2022-08-19T21:33:32.145Z,82.53
2022-08-19T21:35:59.969Z,82.59
2022-08-19T21:38:26.823Z,82.61
2022-08-19T21:40:53.337Z,82.71
2022-08-19T21:43:19.936Z,82.53
2022-08-19T21:45:47.624Z,82.68
2022-08-19T21:48:14.992Z,82.63
2022-08-19T21:50:43.511Z,82.62
2022-08-19T21:53:17.825Z,82.80
2022-08-19T21:55:44.406Z,82.76
2022-08-19T21:58:11.675Z,82.62
2022-08-19T22:00:39.243Z,82.25
2022-08-19T22:03:06.363Z,82.51
2022-08-19T22:05:33.899Z,82.72
2022-08-19T22:08:02.795Z,82.79
2022-08-19T22:10:32.730Z,82.33
2022-08-19T22:12:59.953Z,82.15
2022-08-19T22:15:29.510Z,82.31
2022-08-19T22:17:58.405Z,82.55
2022-08-19T22:20:29.741Z,82.89
2022-08-19T22:23:03.578Z,82.83
2022-08-19T22:25:33.598Z,82.88
2022-08-19T22:28:02.378Z,82.70
2022-08-19T22:30:33.784Z,82.61
2022-08-19T22:33:03.195Z,82.73
2022-08-19T22:35:32.242Z,82.95
2022-08-19T22:37:59.273Z,82.74
2022-08-19T22:40:27.920Z,82.74
2022-08-19T22:43:00.057Z,82.58
2022-08-19T22:45:27.200Z,82.44
2022-08-19T22:47:53.882Z,82.95
2022-08-19T22:50:20.507Z,82.75
2022-08-19T22:52:51.701Z,82.92
2022-08-19T22:55:18.882Z,82.50
2022-08-19T22:57:45.232Z,82.66
2022-08-19T23:00:13.310Z,82.54
2022-08-19T23:02:51.862Z,82.83
2022-08-19T23:05:22.117Z,82.70
2022-08-19T23:07:53.509Z,82.66
2022-08-19T23:10:27.159Z,82.61
2022-08-19T23:12:56.931Z,82.62
2022-08-19T23:15:25.934Z,82.71
2022-08-19T23:17:54.558Z,82.92
2022-08-19T23:20:23.507Z,83.00
2022-08-19T23:22:50.810Z,82.94
2022-08-19T23:25:22.217Z,82.64
2022-08-19T23:28:07.998Z,82.45
2022-08-19T23:30:40.022Z,82.76
2022-08-19T23:33:14.957Z,82.77
2022-08-19T23:35:41.604Z,83.19
2022-08-19T23:38:09.279Z,82.90
2022-08-19T23:40:37.122Z,83.39
2022-08-19T23:43:07.998Z,83.63
2022-08-19T23:45:39.973Z,83.83
2022-08-19T23:48:08.081Z,83.84
2022-08-19T23:50:34.747Z,84.00
2022-08-19T23:53:01.894Z,84.32
2022-08-19T23:55:33.566Z,84.19
2022-08-19T23:58:00.779Z,83.81
